sensor_id;sensor_type;location;lat;lon;timestamp;temperature;humidity
23311;DHT22;11828;51.508;18.118;2024-01-06T00:00:23;19.40;29.40
23311;DHT22;11828;51.508;18.118;2024-01-06T00:03:09;19.30;29.30
23311;DHT22;11828;51.508;18.118;2024-01-06T00:05:35;19.30;29.20
23311;DHT22;11828;51.508;18.118;2024-01-06T00:08:01;19.30;29.30
23311;DHT22;11828;51.508;18.118;2024-01-06T00:10:27;19.40;29.40
23311;DHT22;11828;51.508;18.118;2024-01-06T00:12:53;19.30;29.30
23311;DHT22;11828;51.508;18.118;2024-01-06T00:15:19;19.40;29.30
23311;DHT22;11828;51.508;18.118;2024-01-06T00:17:45;19.40;29.30
23311;DHT22;11828;51.508;18.118;2024-01-06T00:20:12;19.40;29.30
23311;DHT22;11828;51.508;18.118;2024-01-06T00:22:37;19.40;29.30
23311;DHT22;11828;51.508;18.118;2024-01-06T00:25:04;19.40;29.30
23311;DHT22;11828;51.508;18.118;2024-01-06T00:27:30;19.40;29.30
23311;DHT22;11828;51.508;18.118;2024-01-06T00:29:56;19.40;29.40
23311;DHT22;11828;51.508;18.118;2024-01-06T00:32:22;19.40;29.50
23311;DHT22;11828;51.508;18.118;2024-01-06T00:34:48;19.40;29.40
23311;DHT22;11828;51.508;18.118;2024-01-06T00:37:14;19.40;29.30
23311;DHT22;11828;51.508;18.118;2024-01-06T00:39:41;19.40;29.40
23311;DHT22;11828;51.508;18.118;2024-01-06T00:42:06;19.50;29.40
23311;DHT22;11828;51.508;18.118;2024-01-06T00:44:35;19.40;29.40
23311;DHT22;11828;51.508;18.118;2024-01-06T00:47:01;19.30;29.40
23311;DHT22;11828;51.508;18.118;2024-01-06T00:49:28;19.30;29.30
23311;DHT22;11828;51.508;18.118;2024-01-06T00:51:53;19.30;29.40
23311;DHT22;11828;51.508;18.118;2024-01-06T00:54:20;19.20;29.50
23311;DHT22;11828;51.508;18.118;2024-01-06T00:56:45;19.20;29.50
23311;DHT22;11828;51.508;18.118;2024-01-06T00:59:12;19.10;29.60
23311;DHT22;11828;51.508;18.118;2024-01-06T01:01:38;19.20;29.70
23311;DHT22;11828;51.508;18.118;2024-01-06T01:04:04;19.10;29.70
23311;DHT22;11828;51.508;18.118;2024-01-06T01:06:30;19.20;29.70
23311;DHT22;11828;51.508;18.118;2024-01-06T01:08:56;19.30;29.60
23311;DHT22;11828;51.508;18.118;2024-01-06T01:11:23;19.20;29.60
23311;DHT22;11828;51.508;18.118;2024-01-06T01:13:49;19.20;29.60
23311;DHT22;11828;51.508;18.118;2024-01-06T01:16:15;19.20;29.60
23311;DHT22;11828;51.508;18.118;2024-01-06T01:18:41;19.20;29.60
23311;DHT22;11828;51.508;18.118;2024-01-06T01:21:07;19.10;29.60
23311;DHT22;11828;51.508;18.118;2024-01-06T01:23:33;19.10;29.60
23311;DHT22;11828;51.508;18.118;2024-01-06T01:25:59;19.10;29.70
23311;DHT22;11828;51.508;18.118;2024-01-06T01:28:26;19.30;29.70
23311;DHT22;11828;51.508;18.118;2024-01-06T01:30:52;19.30;29.60
23311;DHT22;11828;51.508;18.118;2024-01-06T01:33:18;19.30;29.70
23311;DHT22;11828;51.508;18.118;2024-01-06T01:35:44;19.30;29.60
23311;DHT22;11828;51.508;18.118;2024-01-06T01:38:10;19.40;29.50
23311;DHT22;11828;51.508;18.118;2024-01-06T01:40:36;19.40;29.40
23311;DHT22;11828;51.508;18.118;2024-01-06T01:43:02;19.30;29.40
23311;DHT22;11828;51.508;18.118;2024-01-06T01:45:28;19.30;29.40
23311;DHT22;11828;51.508;18.118;2024-01-06T01:47:55;19.30;29.50
23311;DHT22;11828;51.508;18.118;2024-01-06T01:50:21;19.20;29.50
23311;DHT22;11828;51.508;18.118;2024-01-06T01:52:48;19.10;29.50
23311;DHT22;11828;51.508;18.118;2024-01-06T01:55:14;19.00;29.50
23311;DHT22;11828;51.508;18.118;2024-01-06T01:57:41;19.00;29.50
23311;DHT22;11828;51.508;18.118;2024-01-06T02:00:07;19.00;29.60
23311;DHT22;11828;51.508;18.118;2024-01-06T02:02:34;19.10;29.70
23311;DHT22;11828;51.508;18.118;2024-01-06T02:05:00;19.20;29.70
23311;DHT22;11828;51.508;18.118;2024-01-06T02:07:26;19.20;29.70
23311;DHT22;11828;51.508;18.118;2024-01-06T02:09:52;19.20;29.60
23311;DHT22;11828;51.508;18.118;2024-01-06T02:12:18;19.20;29.50
23311;DHT22;11828;51.508;18.118;2024-01-06T02:14:44;19.20;29.50
23311;DHT22;11828;51.508;18.118;2024-01-06T02:17:11;19.10;29.40
23311;DHT22;11828;51.508;18.118;2024-01-06T02:19:36;19.10;29.50
23311;DHT22;11828;51.508;18.118;2024-01-06T02:22:03;19.10;29.60
23311;DHT22;11828;51.508;18.118;2024-01-06T02:24:29;19.20;29.60
23311;DHT22;11828;51.508;18.118;2024-01-06T02:26:55;19.20;29.50
23311;DHT22;11828;51.508;18.118;2024-01-06T02:29:21;19.20;29.40
23311;DHT22;11828;51.508;18.118;2024-01-06T02:31:47;19.30;29.50
23311;DHT22;11828;51.508;18.118;2024-01-06T02:34:13;19.30;29.40
23311;DHT22;11828;51.508;18.118;2024-01-06T02:36:40;19.30;29.90
23311;DHT22;11828;51.508;18.118;2024-01-06T02:39:06;19.30;29.40
23311;DHT22;11828;51.508;18.118;2024-01-06T02:41:32;19.10;29.30
23311;DHT22;11828;51.508;18.118;2024-01-06T02:43:58;19.20;29.40
23311;DHT22;11828;51.508;18.118;2024-01-06T02:46:24;19.20;29.40
23311;DHT22;11828;51.508;18.118;2024-01-06T02:48:50;19.20;29.30
23311;DHT22;11828;51.508;18.118;2024-01-06T02:51:16;19.20;29.30
23311;DHT22;11828;51.508;18.118;2024-01-06T02:53:42;19.30;29.40
23311;DHT22;11828;51.508;18.118;2024-01-06T02:56:12;19.20;29.40
23311;DHT22;11828;51.508;18.118;2024-01-06T02:58:38;19.30;29.40
23311;DHT22;11828;51.508;18.118;2024-01-06T03:01:05;19.20;29.30
23311;DHT22;11828;51.508;18.118;2024-01-06T03:03:31;19.30;29.30
23311;DHT22;11828;51.508;18.118;2024-01-06T03:05:57;19.10;29.30
23311;DHT22;11828;51.508;18.118;2024-01-06T03:08:23;19.10;29.50
23311;DHT22;11828;51.508;18.118;2024-01-06T03:10:49;19.10;29.50
23311;DHT22;11828;51.508;18.118;2024-01-06T03:13:15;19.00;29.50
23311;DHT22;11828;51.508;18.118;2024-01-06T03:15:41;19.00;29.60
23311;DHT22;11828;51.508;18.118;2024-01-06T03:18:07;19.00;29.50
23311;DHT22;11828;51.508;18.118;2024-01-06T03:20:34;19.00;30.00
23311;DHT22;11828;51.508;18.118;2024-01-06T03:23:00;19.00;29.60
23311;DHT22;11828;51.508;18.118;2024-01-06T03:25:26;19.00;29.60
23311;DHT22;11828;51.508;18.118;2024-01-06T03:27:52;19.00;29.60
23311;DHT22;11828;51.508;18.118;2024-01-06T03:30:19;19.00;29.70
23311;DHT22;11828;51.508;18.118;2024-01-06T03:32:44;19.00;29.70
23311;DHT22;11828;51.508;18.118;2024-01-06T03:35:11;19.10;29.70
23311;DHT22;11828;51.508;18.118;2024-01-06T03:37:37;19.00;29.60
23311;DHT22;11828;51.508;18.118;2024-01-06T03:40:03;19.00;29.60
23311;DHT22;11828;51.508;18.118;2024-01-06T03:42:29;19.10;29.70
23311;DHT22;11828;51.508;18.118;2024-01-06T03:44:56;19.00;29.70
23311;DHT22;11828;51.508;18.118;2024-01-06T03:47:22;19.00;29.80
23311;DHT22;11828;51.508;18.118;2024-01-06T03:49:48;18.90;29.80
23311;DHT22;11828;51.508;18.118;2024-01-06T03:52:14;19.00;30.30
23311;DHT22;11828;51.508;18.118;2024-01-06T03:54:41;19.00;29.80
23311;DHT22;11828;51.508;18.118;2024-01-06T03:57:06;18.90;29.90
23311;DHT22;11828;51.508;18.118;2024-01-06T03:59:33;18.90;29.90
23311;DHT22;11828;51.508;18.118;2024-01-06T04:01:59;18.90;30.00
23311;DHT22;11828;51.508;18.118;2024-01-06T04:04:25;18.90;30.00
23311;DHT22;11828;51.508;18.118;2024-01-06T04:06:51;18.90;29.90
23311;DHT22;11828;51.508;18.118;2024-01-06T04:09:17;18.90;29.90
23311;DHT22;11828;51.508;18.118;2024-01-06T04:11:43;18.90;29.90
23311;DHT22;11828;51.508;18.118;2024-01-06T04:14:09;18.90;29.90
23311;DHT22;11828;51.508;18.118;2024-01-06T04:16:35;18.80;29.90
23311;DHT22;11828;51.508;18.118;2024-01-06T04:19:01;18.80;29.90
23311;DHT22;11828;51.508;18.118;2024-01-06T04:21:27;18.80;30.00
23311;DHT22;11828;51.508;18.118;2024-01-06T04:23:53;18.70;30.00
23311;DHT22;11828;51.508;18.118;2024-01-06T04:26:21;18.60;30.00
23311;DHT22;11828;51.508;18.118;2024-01-06T04:28:48;18.60;30.00
23311;DHT22;11828;51.508;18.118;2024-01-06T04:31:14;18.60;30.00
23311;DHT22;11828;51.508;18.118;2024-01-06T04:33:40;18.70;30.10
23311;DHT22;11828;51.508;18.118;2024-01-06T04:36:07;18.80;30.20
23311;DHT22;11828;51.508;18.118;2024-01-06T04:38:33;18.80;30.10
23311;DHT22;11828;51.508;18.118;2024-01-06T04:40:59;18.80;30.00
23311;DHT22;11828;51.508;18.118;2024-01-06T04:43:25;18.90;30.20
23311;DHT22;11828;51.508;18.118;2024-01-06T04:45:51;18.90;30.10
23311;DHT22;11828;51.508;18.118;2024-01-06T04:48:17;19.00;30.00
23311;DHT22;11828;51.508;18.118;2024-01-06T04:50:43;19.00;29.90
23311;DHT22;11828;51.508;18.118;2024-01-06T04:53:09;18.90;29.90
23311;DHT22;11828;51.508;18.118;2024-01-06T04:55:35;18.90;30.00
23311;DHT22;11828;51.508;18.118;2024-01-06T04:58:01;18.90;30.00
23311;DHT22;11828;51.508;18.118;2024-01-06T05:00:27;18.90;30.00
23311;DHT22;11828;51.508;18.118;2024-01-06T05:02:54;19.00;30.00
23311;DHT22;11828;51.508;18.118;2024-01-06T05:05:19;19.00;30.00
23311;DHT22;11828;51.508;18.118;2024-01-06T05:07:46;19.00;30.20
23311;DHT22;11828;51.508;18.118;2024-01-06T05:10:12;19.10;30.10
23311;DHT22;11828;51.508;18.118;2024-01-06T05:12:38;19.10;30.00
23311;DHT22;11828;51.508;18.118;2024-01-06T05:15:04;19.10;30.00
23311;DHT22;11828;51.508;18.118;2024-01-06T05:17:31;20.30;30.40
23311;DHT22;11828;51.508;18.118;2024-01-06T05:19:57;19.10;30.00
23311;DHT22;11828;51.508;18.118;2024-01-06T05:22:23;19.00;30.00
23311;DHT22;11828;51.508;18.118;2024-01-06T05:24:49;19.10;30.10
23311;DHT22;11828;51.508;18.118;2024-01-06T05:27:19;18.90;30.10
23311;DHT22;11828;51.508;18.118;2024-01-06T05:29:45;19.00;30.00
23311;DHT22;11828;51.508;18.118;2024-01-06T05:32:12;18.90;30.00
23311;DHT22;11828;51.508;18.118;2024-01-06T05:34:37;19.00;30.00
23311;DHT22;11828;51.508;18.118;2024-01-06T05:37:04;19.00;30.00
23311;DHT22;11828;51.508;18.118;2024-01-06T05:39:29;18.90;30.00
23311;DHT22;11828;51.508;18.118;2024-01-06T05:41:56;18.80;30.00
23311;DHT22;11828;51.508;18.118;2024-01-06T05:44:22;18.80;30.00
23311;DHT22;11828;51.508;18.118;2024-01-06T05:46:48;18.70;30.20
23311;DHT22;11828;51.508;18.118;2024-01-06T05:49:14;18.80;30.30
23311;DHT22;11828;51.508;18.118;2024-01-06T05:51:46;18.90;30.20
23311;DHT22;11828;51.508;18.118;2024-01-06T05:54:12;18.90;30.20
23311;DHT22;11828;51.508;18.118;2024-01-06T05:56:39;18.90;30.10
23311;DHT22;11828;51.508;18.118;2024-01-06T05:59:05;18.90;30.00
23311;DHT22;11828;51.508;18.118;2024-01-06T06:01:31;19.00;30.00
23311;DHT22;11828;51.508;18.118;2024-01-06T06:03:57;19.00;30.00
23311;DHT22;11828;51.508;18.118;2024-01-06T06:06:23;19.00;29.90
23311;DHT22;11828;51.508;18.118;2024-01-06T06:08:49;18.90;30.00
23311;DHT22;11828;51.508;18.118;2024-01-06T06:11:15;19.00;30.00
23311;DHT22;11828;51.508;18.118;2024-01-06T06:13:42;19.00;30.00
23311;DHT22;11828;51.508;18.118;2024-01-06T06:16:12;18.90;30.00
23311;DHT22;11828;51.508;18.118;2024-01-06T06:18:38;18.90;30.10
23311;DHT22;11828;51.508;18.118;2024-01-06T06:21:06;18.90;30.20
23311;DHT22;11828;51.508;18.118;2024-01-06T06:23:33;18.90;30.20
23311;DHT22;11828;51.508;18.118;2024-01-06T06:26:06;18.90;30.20
23311;DHT22;11828;51.508;18.118;2024-01-06T06:28:32;18.90;30.20
23311;DHT22;11828;51.508;18.118;2024-01-06T06:31:03;18.80;30.40
23311;DHT22;11828;51.508;18.118;2024-01-06T06:33:29;18.60;30.50
23311;DHT22;11828;51.508;18.118;2024-01-06T06:35:55;18.60;30.80
23311;DHT22;11828;51.508;18.118;2024-01-06T06:38:22;18.50;30.90
23311;DHT22;11828;51.508;18.118;2024-01-06T06:40:48;18.50;31.10
23311;DHT22;11828;51.508;18.118;2024-01-06T06:43:14;18.50;31.20
23311;DHT22;11828;51.508;18.118;2024-01-06T06:45:40;18.50;31.20
23311;DHT22;11828;51.508;18.118;2024-01-06T06:48:06;18.50;31.20
23311;DHT22;11828;51.508;18.118;2024-01-06T06:50:32;18.50;31.40
23311;DHT22;11828;51.508;18.118;2024-01-06T06:52:59;18.50;31.30
23311;DHT22;11828;51.508;18.118;2024-01-06T06:55:26;18.40;31.30
23311;DHT22;11828;51.508;18.118;2024-01-06T06:57:53;18.40;31.50
23311;DHT22;11828;51.508;18.118;2024-01-06T07:00:19;18.40;31.50
23311;DHT22;11828;51.508;18.118;2024-01-06T07:02:45;18.50;31.60
23311;DHT22;11828;51.508;18.118;2024-01-06T07:05:12;20.30;32.40
23311;DHT22;11828;51.508;18.118;2024-01-06T07:07:38;18.50;31.60
23311;DHT22;11828;51.508;18.118;2024-01-06T07:10:05;18.50;31.60
23311;DHT22;11828;51.508;18.118;2024-01-06T07:12:32;18.40;31.60
23311;DHT22;11828;51.508;18.118;2024-01-06T07:14:58;18.40;31.60
23311;DHT22;11828;51.508;18.118;2024-01-06T07:17:25;18.40;31.70
23311;DHT22;11828;51.508;18.118;2024-01-06T07:19:51;18.50;31.80
23311;DHT22;11828;51.508;18.118;2024-01-06T07:22:17;18.50;31.80
23311;DHT22;11828;51.508;18.118;2024-01-06T07:24:44;18.60;32.00
23311;DHT22;11828;51.508;18.118;2024-01-06T07:27:11;18.60;31.90
23311;DHT22;11828;51.508;18.118;2024-01-06T07:29:37;18.60;31.80
23311;DHT22;11828;51.508;18.118;2024-01-06T07:32:04;18.50;31.90
23311;DHT22;11828;51.508;18.118;2024-01-06T07:34:32;18.60;32.00
23311;DHT22;11828;51.508;18.118;2024-01-06T07:36:59;18.70;32.20
23311;DHT22;11828;51.508;18.118;2024-01-06T07:39:25;18.70;32.10
23311;DHT22;11828;51.508;18.118;2024-01-06T07:41:51;18.60;32.00
23311;DHT22;11828;51.508;18.118;2024-01-06T07:44:17;18.70;32.00
23311;DHT22;11828;51.508;18.118;2024-01-06T07:46:51;18.80;32.00
23311;DHT22;11828;51.508;18.118;2024-01-06T07:49:18;18.80;31.80
23311;DHT22;11828;51.508;18.118;2024-01-06T07:51:44;18.80;31.90
23311;DHT22;11828;51.508;18.118;2024-01-06T07:54:10;18.70;32.00
23311;DHT22;11828;51.508;18.118;2024-01-06T07:56:37;18.70;32.00
23311;DHT22;11828;51.508;18.118;2024-01-06T07:59:04;18.70;32.00
23311;DHT22;11828;51.508;18.118;2024-01-06T08:01:31;18.70;32.00
23311;DHT22;11828;51.508;18.118;2024-01-06T08:03:58;18.70;32.20
23311;DHT22;11828;51.508;18.118;2024-01-06T08:06:26;18.70;32.20
23311;DHT22;11828;51.508;18.118;2024-01-06T08:08:52;18.70;32.10
23311;DHT22;11828;51.508;18.118;2024-01-06T08:11:18;18.70;32.20
23311;DHT22;11828;51.508;18.118;2024-01-06T08:13:44;18.80;32.20
23311;DHT22;11828;51.508;18.118;2024-01-06T08:16:10;18.70;32.10
23311;DHT22;11828;51.508;18.118;2024-01-06T08:18:36;18.70;32.00
23311;DHT22;11828;51.508;18.118;2024-01-06T08:21:03;18.70;32.00
23311;DHT22;11828;51.508;18.118;2024-01-06T08:23:29;18.60;31.90
23311;DHT22;11828;51.508;18.118;2024-01-06T08:25:55;18.70;32.00
23311;DHT22;11828;51.508;18.118;2024-01-06T08:28:22;18.70;31.90
23311;DHT22;11828;51.508;18.118;2024-01-06T08:30:49;18.70;32.00
23311;DHT22;11828;51.508;18.118;2024-01-06T08:33:15;18.70;32.00
23311;DHT22;11828;51.508;18.118;2024-01-06T08:35:44;18.70;32.10
23311;DHT22;11828;51.508;18.118;2024-01-06T08:38:10;18.70;31.90
23311;DHT22;11828;51.508;18.118;2024-01-06T08:40:36;18.70;32.60
23311;DHT22;11828;51.508;18.118;2024-01-06T08:43:03;18.70;31.80
23311;DHT22;11828;51.508;18.118;2024-01-06T08:45:29;18.70;31.70
23311;DHT22;11828;51.508;18.118;2024-01-06T08:47:55;18.70;31.80
23311;DHT22;11828;51.508;18.118;2024-01-06T08:50:22;18.70;31.80
23311;DHT22;11828;51.508;18.118;2024-01-06T08:52:48;18.70;31.90
23311;DHT22;11828;51.508;18.118;2024-01-06T08:55:14;18.70;31.90
23311;DHT22;11828;51.508;18.118;2024-01-06T08:57:42;18.70;31.90
23311;DHT22;11828;51.508;18.118;2024-01-06T09:00:08;18.70;31.80
23311;DHT22;11828;51.508;18.118;2024-01-06T09:02:36;18.70;31.80
23311;DHT22;11828;51.508;18.118;2024-01-06T09:05:02;18.90;31.90
23311;DHT22;11828;51.508;18.118;2024-01-06T09:07:29;18.90;31.80
23311;DHT22;11828;51.508;18.118;2024-01-06T09:09:55;19.00;31.70
23311;DHT22;11828;51.508;18.118;2024-01-06T09:12:21;19.00;31.40
23311;DHT22;11828;51.508;18.118;2024-01-06T09:14:47;19.10;31.40
23311;DHT22;11828;51.508;18.118;2024-01-06T09:17:13;19.10;31.50
23311;DHT22;11828;51.508;18.118;2024-01-06T09:19:39;19.10;31.30
23311;DHT22;11828;51.508;18.118;2024-01-06T09:22:05;19.20;31.40
23311;DHT22;11828;51.508;18.118;2024-01-06T09:24:31;19.10;31.30
23311;DHT22;11828;51.508;18.118;2024-01-06T09:26:59;19.10;31.40
23311;DHT22;11828;51.508;18.118;2024-01-06T09:29:25;19.10;31.50
23311;DHT22;11828;51.508;18.118;2024-01-06T09:31:51;19.20;31.60
23311;DHT22;11828;51.508;18.118;2024-01-06T09:34:18;19.10;31.30
23311;DHT22;11828;51.508;18.118;2024-01-06T09:36:44;19.10;31.30
23311;DHT22;11828;51.508;18.118;2024-01-06T09:39:10;19.10;31.30
23311;DHT22;11828;51.508;18.118;2024-01-06T09:41:36;19.10;31.30
23311;DHT22;11828;51.508;18.118;2024-01-06T09:44:02;19.00;31.40
23311;DHT22;11828;51.508;18.118;2024-01-06T09:46:28;19.00;31.50
23311;DHT22;11828;51.508;18.118;2024-01-06T09:48:58;18.90;31.30
23311;DHT22;11828;51.508;18.118;2024-01-06T09:51:24;18.90;31.40
23311;DHT22;11828;51.508;18.118;2024-01-06T09:54:04;18.80;31.70
23311;DHT22;11828;51.508;18.118;2024-01-06T09:56:34;18.80;31.80
23311;DHT22;11828;51.508;18.118;2024-01-06T09:59:01;18.90;31.70
23311;DHT22;11828;51.508;18.118;2024-01-06T10:01:27;18.80;31.60
23311;DHT22;11828;51.508;18.118;2024-01-06T10:03:53;18.90;31.60
23311;DHT22;11828;51.508;18.118;2024-01-06T10:06:20;18.90;31.50
23311;DHT22;11828;51.508;18.118;2024-01-06T10:08:50;18.80;31.60
23311;DHT22;11828;51.508;18.118;2024-01-06T10:11:22;18.80;31.50
23311;DHT22;11828;51.508;18.118;2024-01-06T10:13:49;18.80;31.70
23311;DHT22;11828;51.508;18.118;2024-01-06T10:16:17;18.70;31.50
23311;DHT22;11828;51.508;18.118;2024-01-06T10:18:44;18.70;31.60
23311;DHT22;11828;51.508;18.118;2024-01-06T10:21:10;18.70;31.70
23311;DHT22;11828;51.508;18.118;2024-01-06T10:23:37;18.70;31.60
23311;DHT22;11828;51.508;18.118;2024-01-06T10:26:03;18.70;31.60
23311;DHT22;11828;51.508;18.118;2024-01-06T10:28:29;18.70;31.70
23311;DHT22;11828;51.508;18.118;2024-01-06T10:30:56;18.70;32.20
23311;DHT22;11828;51.508;18.118;2024-01-06T10:33:24;18.60;31.50
23311;DHT22;11828;51.508;18.118;2024-01-06T10:35:52;18.70;31.70
23311;DHT22;11828;51.508;18.118;2024-01-06T10:38:20;18.50;31.40
23311;DHT22;11828;51.508;18.118;2024-01-06T10:41:02;18.60;31.60
23311;DHT22;11828;51.508;18.118;2024-01-06T10:43:33;18.60;31.60
23311;DHT22;11828;51.508;18.118;2024-01-06T10:46:06;18.60;31.40
23311;DHT22;11828;51.508;18.118;2024-01-06T10:48:37;18.40;31.30
23311;DHT22;11828;51.508;18.118;2024-01-06T10:51:11;18.40;31.50
23311;DHT22;11828;51.508;18.118;2024-01-06T10:53:43;18.40;31.50
23311;DHT22;11828;51.508;18.118;2024-01-06T10:56:09;18.40;31.70
23311;DHT22;11828;51.508;18.118;2024-01-06T10:58:48;18.30;31.70
23311;DHT22;11828;51.508;18.118;2024-01-06T11:01:22;18.30;31.60
23311;DHT22;11828;51.508;18.118;2024-01-06T11:03:50;18.40;31.80
23311;DHT22;11828;51.508;18.118;2024-01-06T11:06:17;18.40;31.70
23311;DHT22;11828;51.508;18.118;2024-01-06T11:08:57;18.40;31.70
23311;DHT22;11828;51.508;18.118;2024-01-06T11:11:28;18.30;31.50
23311;DHT22;11828;51.508;18.118;2024-01-06T11:14:25;18.30;31.50
23311;DHT22;11828;51.508;18.118;2024-01-06T11:16:54;18.40;31.50
23311;DHT22;11828;51.508;18.118;2024-01-06T11:22:27;18.50;31.30
23311;DHT22;11828;51.508;18.118;2024-01-06T11:25:04;18.50;31.30
23311;DHT22;11828;51.508;18.118;2024-01-06T11:27:33;18.50;31.10
23311;DHT22;11828;51.508;18.118;2024-01-06T11:30:04;18.40;31.10
23311;DHT22;11828;51.508;18.118;2024-01-06T11:32:35;18.40;31.20
23311;DHT22;11828;51.508;18.118;2024-01-06T11:35:12;18.30;31.20
23311;DHT22;11828;51.508;18.118;2024-01-06T11:42:47;18.30;31.40
23311;DHT22;11828;51.508;18.118;2024-01-06T11:45:14;18.30;31.60
23311;DHT22;11828;51.508;18.118;2024-01-06T11:47:47;18.20;31.40
23311;DHT22;11828;51.508;18.118;2024-01-06T11:50:15;18.20;31.40
23311;DHT22;11828;51.508;18.118;2024-01-06T11:52:41;18.10;31.40
23311;DHT22;11828;51.508;18.118;2024-01-06T11:55:08;18.10;31.50
23311;DHT22;11828;51.508;18.118;2024-01-06T11:57:35;18.10;31.50
23311;DHT22;11828;51.508;18.118;2024-01-06T12:00:01;18.10;31.40
23311;DHT22;11828;51.508;18.118;2024-01-06T12:02:29;18.20;31.60
23311;DHT22;11828;51.508;18.118;2024-01-06T12:04:56;18.10;31.50
23311;DHT22;11828;51.508;18.118;2024-01-06T12:07:22;18.10;31.60
23311;DHT22;11828;51.508;18.118;2024-01-06T12:09:49;18.10;31.40
23311;DHT22;11828;51.508;18.118;2024-01-06T12:12:17;18.10;31.50
23311;DHT22;11828;51.508;18.118;2024-01-06T12:14:44;18.20;31.60
23311;DHT22;11828;51.508;18.118;2024-01-06T12:17:12;18.20;31.40
23311;DHT22;11828;51.508;18.118;2024-01-06T12:19:39;18.20;31.30
23311;DHT22;11828;51.508;18.118;2024-01-06T12:22:14;18.80;31.50
23311;DHT22;11828;51.508;18.118;2024-01-06T12:24:42;18.00;31.20
23311;DHT22;11828;51.508;18.118;2024-01-06T12:27:09;17.90;31.30
23311;DHT22;11828;51.508;18.118;2024-01-06T12:29:40;17.90;31.40
23311;DHT22;11828;51.508;18.118;2024-01-06T12:32:07;18.00;31.70
23311;DHT22;11828;51.508;18.118;2024-01-06T12:34:34;18.00;31.50
23311;DHT22;11828;51.508;18.118;2024-01-06T12:37:01;18.10;31.40
23311;DHT22;11828;51.508;18.118;2024-01-06T12:39:29;18.00;31.30
23311;DHT22;11828;51.508;18.118;2024-01-06T12:41:56;18.10;31.40
23311;DHT22;11828;51.508;18.118;2024-01-06T12:44:23;18.10;31.30
23311;DHT22;11828;51.508;18.118;2024-01-06T12:46:49;18.30;31.30
23311;DHT22;11828;51.508;18.118;2024-01-06T12:49:15;18.20;31.20
23311;DHT22;11828;51.508;18.118;2024-01-06T12:51:41;18.20;31.10
23311;DHT22;11828;51.508;18.118;2024-01-06T12:54:07;17.70;31.00
23311;DHT22;11828;51.508;18.118;2024-01-06T12:56:34;18.00;31.10
23311;DHT22;11828;51.508;18.118;2024-01-06T12:59:00;18.00;31.30
23311;DHT22;11828;51.508;18.118;2024-01-06T13:01:26;18.00;31.50
23311;DHT22;11828;51.508;18.118;2024-01-06T13:03:52;18.00;31.40
23311;DHT22;11828;51.508;18.118;2024-01-06T13:06:20;17.90;31.30
23311;DHT22;11828;51.508;18.118;2024-01-06T13:08:47;18.00;31.50
23311;DHT22;11828;51.508;18.118;2024-01-06T13:11:13;18.00;31.50
23311;DHT22;11828;51.508;18.118;2024-01-06T13:13:39;17.90;31.40
23311;DHT22;11828;51.508;18.118;2024-01-06T13:16:05;17.80;31.40
23311;DHT22;11828;51.508;18.118;2024-01-06T13:18:32;17.90;31.60
23311;DHT22;11828;51.508;18.118;2024-01-06T13:20:58;17.90;31.50
23311;DHT22;11828;51.508;18.118;2024-01-06T13:23:24;17.90;31.40
23311;DHT22;11828;51.508;18.118;2024-01-06T13:25:50;17.90;31.40
23311;DHT22;11828;51.508;18.118;2024-01-06T13:28:16;17.80;31.40
23311;DHT22;11828;51.508;18.118;2024-01-06T13:30:42;17.80;31.50
23311;DHT22;11828;51.508;18.118;2024-01-06T13:33:09;17.80;31.50
23311;DHT22;11828;51.508;18.118;2024-01-06T13:35:36;17.80;31.50
23311;DHT22;11828;51.508;18.118;2024-01-06T13:38:06;17.80;31.40
23311;DHT22;11828;51.508;18.118;2024-01-06T13:40:32;17.80;31.30
23311;DHT22;11828;51.508;18.118;2024-01-06T13:42:58;17.80;31.60
23311;DHT22;11828;51.508;18.118;2024-01-06T13:45:24;17.70;31.40
23311;DHT22;11828;51.508;18.118;2024-01-06T13:47:50;17.70;31.30
23311;DHT22;11828;51.508;18.118;2024-01-06T13:50:18;17.50;31.40
23311;DHT22;11828;51.508;18.118;2024-01-06T13:52:45;17.50;31.20
23311;DHT22;11828;51.508;18.118;2024-01-06T13:55:11;17.50;31.50
23311;DHT22;11828;51.508;18.118;2024-01-06T13:57:38;17.50;31.60
23311;DHT22;11828;51.508;18.118;2024-01-06T14:00:10;17.40;31.60
23311;DHT22;11828;51.508;18.118;2024-01-06T14:02:37;17.30;31.70
23311;DHT22;11828;51.508;18.118;2024-01-06T14:05:04;17.30;31.90
23311;DHT22;11828;51.508;18.118;2024-01-06T14:07:35;17.30;32.00
23311;DHT22;11828;51.508;18.118;2024-01-06T14:10:01;17.40;32.00
23311;DHT22;11828;51.508;18.118;2024-01-06T14:12:30;17.40;31.90
23311;DHT22;11828;51.508;18.118;2024-01-06T14:14:57;17.40;31.90
23311;DHT22;11828;51.508;18.118;2024-01-06T14:17:24;17.30;31.90
23311;DHT22;11828;51.508;18.118;2024-01-06T14:19:50;17.20;31.90
23311;DHT22;11828;51.508;18.118;2024-01-06T14:22:18;17.10;31.90
23311;DHT22;11828;51.508;18.118;2024-01-06T14:24:44;17.00;32.00
23311;DHT22;11828;51.508;18.118;2024-01-06T14:27:10;16.90;32.10
23311;DHT22;11828;51.508;18.118;2024-01-06T14:29:36;16.90;32.30
23311;DHT22;11828;51.508;18.118;2024-01-06T14:32:04;17.00;32.50
23311;DHT22;11828;51.508;18.118;2024-01-06T14:34:30;17.00;32.40
23311;DHT22;11828;51.508;18.118;2024-01-06T14:36:56;17.20;32.40
23311;DHT22;11828;51.508;18.118;2024-01-06T14:39:22;17.20;32.40
23311;DHT22;11828;51.508;18.118;2024-01-06T14:41:49;17.20;32.10
23311;DHT22;11828;51.508;18.118;2024-01-06T14:44:15;17.30;32.00
23311;DHT22;11828;51.508;18.118;2024-01-06T14:46:43;17.40;32.00
23311;DHT22;11828;51.508;18.118;2024-01-06T14:49:09;17.30;31.60
23311;DHT22;11828;51.508;18.118;2024-01-06T14:51:36;17.20;31.70
23311;DHT22;11828;51.508;18.118;2024-01-06T14:54:02;17.30;31.80
23311;DHT22;11828;51.508;18.118;2024-01-06T14:56:29;17.30;31.70
23311;DHT22;11828;51.508;18.118;2024-01-06T14:58:56;17.40;31.90
23311;DHT22;11828;51.508;18.118;2024-01-06T15:01:22;17.30;31.70
23311;DHT22;11828;51.508;18.118;2024-01-06T15:03:48;17.30;31.70
23311;DHT22;11828;51.508;18.118;2024-01-06T15:06:14;17.20;31.60
23311;DHT22;11828;51.508;18.118;2024-01-06T15:08:42;17.50;31.80
23311;DHT22;11828;51.508;18.118;2024-01-06T15:11:09;17.30;31.70
23311;DHT22;11828;51.508;18.118;2024-01-06T15:13:35;17.30;31.60
23311;DHT22;11828;51.508;18.118;2024-01-06T15:16:02;17.20;31.60
23311;DHT22;11828;51.508;18.118;2024-01-06T15:18:28;17.20;31.50
23311;DHT22;11828;51.508;18.118;2024-01-06T15:20:55;17.20;31.60